Terminal Aerodrome Forecast
Issued by NWS

Home | Current Version | Previous Version | Text Only | Print | Product List | Glossary On
Versions: 1 2 3 4 5 6 7 8 9 10 11 12 13 14 15 16 17 18 19 20 21 22 23 24 25 26 27 28 29 30
000
FTUS45 KGJT 240709 AAA
TAFRIL
TAF AMD
KRIL 240709Z 2407/2506 17003KT P6SM SCT100 BKN180
     FM241900 29010KT P6SM VCTS SCT100CB BKN130
     FM250100 13010KT P6SM VCTS BKN100CB BKN150=

USA.gov is the U.S. government's official web portal to all federal, state and local government web resources and services.